Time;durP1;ratioP1;P1;durP2;ratioP2;P2;SDS_P1;SDS_P2;PMS_P1;PMS_P2;Temp;Humidity;BMP_temperature;BMP_pressure;BME280_temperature;BME280_humidity;BME280_pressure;Samples;Min_cycle;Max_cycle;Signal;HPM_P1;HPM_P2
2022/04/21 00:00:05;;;;;;;6.10;5.20;;;9.20;99.90;;;;;;5076033;28;20461;-58
2022/04/21 00:02:32;;;;;;;8.60;5.20;;;9.20;99.90;;;;;;5057034;28;20532;-55
2022/04/21 00:05:05;;;;;;;7.30;6.60;;;9.10;99.90;;;;;;5062534;28;20791;-57
2022/04/21 00:07:35;;;;;;;6.40;5.77;;;9.10;99.90;;;;;;5077002;28;20472;-57
2022/04/21 00:10:02;;;;;;;6.33;5.83;;;9.10;99.90;;;;;;5076871;28;20560;-56
2022/04/21 00:12:34;;;;;;;6.80;6.07;;;9.10;99.90;;;;;;5076189;28;20468;-58
2022/04/21 00:15:04;;;;;;;6.13;5.63;;;9.00;99.90;;;;;;5076933;28;20465;-57
2022/04/21 00:17:34;;;;;;;8.03;5.70;;;9.00;99.90;;;;;;5076535;28;20510;-57
2022/04/21 00:20:08;;;;;;;6.13;5.50;;;9.00;99.90;;;;;;5076762;28;20514;-55
2022/04/21 00:25:21;;;;;;;8.07;6.20;;;9.00;99.90;;;;;;5076152;28;20451;-55
2022/04/21 00:27:50;;;;;;;6.10;5.10;;;9.00;99.90;;;;;;5076691;28;20492;-57
2022/04/21 00:30:18;;;;;;;7.40;5.70;;;8.90;99.90;;;;;;5076821;28;20500;-57
2022/04/21 00:32:47;;;;;;;6.20;5.70;;;8.90;99.90;;;;;;5076360;28;20461;-57
2022/04/21 00:35:18;;;;;;;7.20;6.47;;;8.80;99.90;;;;;;5076897;28;20461;-58
2022/04/21 00:37:51;;;;;;;7.50;6.53;;;8.70;99.90;;;;;;5076028;28;20476;-54
2022/04/21 00:40:22;;;;;;;8.00;6.50;;;8.70;99.90;;;;;;5076832;28;20507;-57
2022/04/21 00:42:54;;;;;;;6.93;6.37;;;8.70;99.90;;;;;;5075809;28;20507;-57
2022/04/21 00:45:21;;;;;;;7.43;6.70;;;8.60;99.90;;;;;;5076639;28;20472;-57
2022/04/21 00:47:52;;;;;;;7.37;6.67;;;8.50;99.90;;;;;;5076546;28;20461;-56
2022/04/21 00:50:23;;;;;;;8.03;7.23;;;8.40;99.90;;;;;;5076642;28;20614;-57
2022/04/21 00:52:52;;;;;;;8.47;7.67;;;8.40;99.90;;;;;;5076086;28;20457;-56
2022/04/21 00:55:20;;;;;;;7.70;6.90;;;8.30;99.90;;;;;;5076494;28;20497;-57
2022/04/21 00:57:49;;;;;;;7.53;6.87;;;8.30;99.90;;;;;;5076030;28;20465;-57
2022/04/21 01:00:19;;;;;;;7.80;7.00;;;8.20;1.00;;;;;;5078336;28;20465;-57
2022/04/21 01:02:52;;;;;;;8.67;7.03;;;8.20;1.00;;;;;;5079469;28;20465;-57
2022/04/21 01:05:30;;;;;;;12.47;7.30;;;8.10;1.00;;;;;;5080050;28;20535;-57
2022/04/21 01:07:59;;;;;;;8.27;7.47;;;8.00;1.00;;;;;;5080078;28;20947;-57
2022/04/21 01:10:30;;;;;;;7.87;7.17;;;8.00;1.00;;;;;;5079890;28;20489;-58
2022/04/21 01:13:04;;;;;;;8.27;7.47;;;8.00;1.00;;;;;;5080553;28;20736;-58
2022/04/21 01:16:21;;;;;;;8.90;7.97;;;7.90;1.00;;;;;;5079481;28;20461;-58
2022/04/21 01:18:48;;;;;;;9.60;7.60;;;7.90;1.00;;;;;;5080352;28;20461;-58
2022/04/21 01:21:17;;;;;;;7.30;6.70;;;7.80;1.00;;;;;;5079082;28;20511;-54
2022/04/21 01:23:46;;;;;;;8.00;7.40;;;7.80;1.00;;;;;;5079789;28;20461;-57
2022/04/21 01:26:15;;;;;;;8.13;7.33;;;7.70;1.00;;;;;;5079649;28;20901;-55
2022/04/21 01:28:42;;;;;;;8.20;7.47;;;7.60;1.00;;;;;;5079792;28;20473;-57
2022/04/21 01:31:12;;;;;;;8.23;7.43;;;7.60;1.00;;;;;;5078971;28;20463;-57
2022/04/21 01:33:43;;;;;;;7.70;7.00;;;7.60;1.00;;;;;;5079374;28;20519;-57
2022/04/21 01:36:13;;;;;;;7.87;7.03;;;7.60;1.00;;;;;;5079457;28;20811;-57
2022/04/21 01:41:43;;;;;;;8.20;7.40;;;7.50;1.00;;;;;;4997040;28;20472;-56
2022/04/21 01:44:10;;;;;;;10.93;9.93;;;7.40;1.00;;;;;;5041038;28;20856;-57
2022/04/21 01:46:40;;;;;;;9.20;8.37;;;7.40;1.00;;;;;;5064785;28;20983;-55
2022/04/21 01:49:08;;;;;;;9.97;9.10;;;7.30;1.00;;;;;;5079480;28;20546;-57
2022/04/21 01:51:43;;;;;;;9.63;8.73;;;7.30;1.00;;;;;;5079394;28;20552;-57
2022/04/21 01:54:17;;;;;;;8.83;7.93;;;7.20;1.00;;;;;;5078992;28;20465;-57
2022/04/21 01:56:47;;;;;;;9.60;8.43;;;7.20;1.00;;;;;;5079349;28;20497;-56
2022/04/21 01:59:15;;;;;;;9.43;8.53;;;7.20;1.00;;;;;;5078969;28;20461;-54
2022/04/21 02:01:43;;;;;;;8.80;8.10;;;7.20;1.00;;;;;;5078212;28;20532;-56
2022/04/21 02:04:14;;;;;;;9.03;8.23;;;7.20;1.00;;;;;;5078363;28;20465;-57
2022/04/21 02:06:41;;;;;;;9.50;8.60;;;7.20;1.00;;;;;;5079297;28;20554;-56
2022/04/21 02:09:14;;;;;;;8.07;7.37;;;7.20;1.00;;;;;;5078666;28;20915;-56
2022/04/21 02:11:41;;;;;;;9.10;8.20;;;7.20;1.00;;;;;;5078212;28;20461;-58
2022/04/21 02:14:08;;;;;;;8.40;7.70;;;7.20;1.00;;;;;;5078104;28;20464;-57
2022/04/21 02:16:35;;;;;;;8.67;7.87;;;7.20;1.00;;;;;;5078640;28;20461;-58
2022/04/21 02:19:02;;;;;;;7.37;6.60;;;7.10;1.00;;;;;;5078990;28;20457;-58
2022/04/21 02:21:36;;;;;;;7.57;6.87;;;7.20;1.00;;;;;;5078506;28;20453;-58
2022/04/21 02:24:04;;;;;;;8.97;7.90;;;7.20;1.00;;;;;;5079379;28;20881;-57
2022/04/21 02:26:35;;;;;;;9.67;7.00;;;7.10;1.00;;;;;;5078609;28;20534;-57
2022/04/21 02:29:05;;;;;;;8.00;7.30;;;7.10;1.00;;;;;;5078790;28;20468;-57
2022/04/21 02:31:35;;;;;;;13.30;7.00;;;7.10;1.00;;;;;;5078282;28;20489;-56
2022/04/21 02:34:02;;;;;;;10.53;7.20;;;7.00;1.00;;;;;;5078141;28;20517;-57
2022/04/21 02:36:39;;;;;;;8.47;7.67;;;6.90;1.00;;;;;;5078046;28;20484;-56
2022/04/21 02:39:08;;;;;;;8.70;7.90;;;6.80;1.00;;;;;;5078644;28;20549;-54
2022/04/21 02:41:39;;;;;;;8.80;7.90;;;6.70;1.00;;;;;;5077882;28;20929;-57
2022/04/21 02:44:07;;;;;;;9.40;8.50;;;6.70;1.00;;;;;;5078232;28;20461;-57
2022/04/21 02:46:35;;;;;;;12.73;8.20;;;6.60;1.00;;;;;;5078031;28;20461;-56
2022/04/21 02:49:05;;;;;;;9.30;7.77;;;6.50;1.00;;;;;;5077777;28;20503;-54
2022/04/21 02:51:32;;;;;;;8.70;7.80;;;6.50;1.00;;;;;;5077777;28;20496;-56
2022/04/21 02:59:34;;;;;;;12.57;8.30;;;6.30;1.00;;;;;;5077575;28;20433;-57
2022/04/21 03:02:01;;;;;;;8.07;7.33;;;6.30;1.00;;;;;;5078121;28;20472;-57
2022/04/21 03:04:29;;;;;;;8.43;7.63;;;6.30;1.00;;;;;;5078018;28;20888;-56
2022/04/21 03:07:00;;;;;;;9.47;8.00;;;6.20;1.00;;;;;;5078024;28;20505;-57
2022/04/21 03:09:28;;;;;;;8.70;7.80;;;6.20;1.00;;;;;;5076573;28;20515;-53
2022/04/21 03:12:02;;;;;;;9.97;8.73;;;6.20;1.00;;;;;;5077433;28;20467;-57
2022/04/21 03:14:29;;;;;;;8.47;7.57;;;6.10;1.00;;;;;;5077870;28;20468;-52
2022/04/21 03:16:59;;;;;;;10.00;9.00;;;6.10;1.00;;;;;;5077875;28;20475;-58
2022/04/21 03:19:28;;;;;;;10.97;9.83;;;6.20;1.00;;;;;;5076807;28;20910;-56
2022/04/21 03:24:50;;;;;;;8.80;7.60;;;6.10;1.00;;;;;;5057447;28;20756;-54
2022/04/21 03:27:21;;;;;;;7.90;7.20;;;6.10;1.00;;;;;;5057469;28;20528;-57
2022/04/21 03:29:55;;;;;;;9.10;7.90;;;6.10;1.00;;;;;;5067179;28;20919;-56
2022/04/21 03:32:26;;;;;;;8.40;7.60;;;6.20;1.00;;;;;;5077179;28;20467;-57
2022/04/21 03:34:59;;;;;;;8.67;7.87;;;6.10;1.00;;;;;;5077387;28;20515;-58
2022/04/21 03:37:25;;;;;;;9.30;8.00;;;6.10;1.00;;;;;;5077039;28;20496;-57
2022/04/21 03:40:00;;;;;;;9.37;8.57;;;6.10;1.00;;;;;;5076551;28;20575;-57
2022/04/21 03:42:31;;;;;;;9.33;8.43;;;6.20;1.00;;;;;;5077554;28;20946;-57
2022/04/21 03:44:59;;;;;;;9.37;8.17;;;6.20;1.00;;;;;;5077343;28;20531;-55
2022/04/21 03:47:26;;;;;;;10.63;8.97;;;6.20;1.00;;;;;;5077438;28;20939;-56
2022/04/21 03:49:58;;;;;;;9.57;7.60;;;6.10;1.00;;;;;;5075878;28;20484;-57
2022/04/21 03:52:25;;;;;;;10.67;8.37;;;6.00;1.00;;;;;;5076603;28;20856;-56
2022/04/21 03:54:55;;;;;;;8.23;7.30;;;6.00;1.00;;;;;;5076710;28;20769;-56
2022/04/21 03:57:22;;;;;;;8.73;7.73;;;6.00;1.00;;;;;;5077101;28;20501;-55
2022/04/21 03:59:50;;;;;;;8.53;7.10;;;5.90;1.00;;;;;;5076838;28;20489;-53
2022/04/21 04:02:22;;;;;;;7.07;6.43;;;5.90;1.00;;;;;;5076476;28;20890;-57
2022/04/21 04:04:53;;;;;;;9.00;7.90;;;5.90;1.00;;;;;;5077234;28;20458;-57
2022/04/21 04:12:57;;;;;;;7.07;6.37;;;5.70;1.00;;;;;;5056900;28;20448;-57
2022/04/21 04:15:26;;;;;;;8.00;6.43;;;5.70;1.00;;;;;;5063274;28;20608;-57
2022/04/21 04:17:55;;;;;;;7.30;6.57;;;5.60;2.50;;;;;;5076806;28;20461;-56
2022/04/21 04:20:22;;;;;;;7.57;6.83;;;5.70;23.60;;;;;;5077052;28;20556;-56
2022/04/21 04:22:50;;;;;;;6.33;5.73;;;5.60;1.00;;;;;;5076379;28;20518;-56
2022/04/21 04:25:17;;;;;;;9.83;6.90;;;5.50;4.90;;;;;;5076209;28;20466;-56
2022/04/21 04:27:44;;;;;;;7.83;7.07;;;5.60;77.90;;;;;;5076535;28;20476;-57
2022/04/21 04:30:15;;;;;;;10.70;7.10;;;5.60;99.90;;;;;;5076697;28;20489;-58
2022/04/21 04:32:43;;;;;;;7.03;6.40;;;5.60;90.70;;;;;;5075904;28;20465;-58
2022/04/21 04:35:13;;;;;;;7.50;6.80;;;5.50;99.90;;;;;;5078578;28;20453;-58
2022/04/21 04:37:40;;;;;;;7.30;6.60;;;5.50;99.90;;;;;;5080023;28;20960;-56
2022/04/21 04:40:12;;;;;;;10.00;6.50;;;5.50;99.90;;;;;;5079632;28;20507;-58
2022/04/21 04:42:38;;;;;;;8.37;7.00;;;5.60;99.90;;;;;;5079896;28;20519;-56
2022/04/21 04:47:53;;;;;;;8.03;7.00;;;5.70;70.50;;;;;;5079858;28;20484;-57
2022/04/21 04:50:25;;;;;;;7.97;7.17;;;5.70;41.60;;;;;;5080275;28;20583;-58
2022/04/21 04:52:58;;;;;;;13.10;7.60;;;5.80;4.50;;;;;;5080158;28;20902;-57
2022/04/21 04:55:25;;;;;;;13.67;8.23;;;5.70;1.00;;;;;;5080397;28;20508;-57
2022/04/21 04:57:54;;;;;;;10.80;9.10;;;5.70;1.00;;;;;;5080445;28;20518;-56
2022/04/21 05:00:32;;;;;;;17.60;8.60;;;5.70;1.00;;;;;;5080437;28;20525;-58
2022/04/21 05:03:02;;;;;;;10.80;8.83;;;5.70;1.00;;;;;;5080217;28;20510;-57
2022/04/21 05:05:30;;;;;;;9.97;8.90;;;5.70;33.60;;;;;;5080412;28;20878;-57
2022/04/21 05:07:57;;;;;;;13.03;10.10;;;5.70;24.00;;;;;;5079397;28;20467;-58
2022/04/21 05:10:28;;;;;;;11.03;9.87;;;5.70;36.60;;;;;;5080007;28;20513;-57
2022/04/21 05:13:01;;;;;;;11.67;10.10;;;5.80;71.30;;;;;;5079866;28;20465;-58
2022/04/21 05:15:28;;;;;;;11.50;10.40;;;5.80;60.20;;;;;;5079708;28;20471;-58
2022/04/21 05:17:57;;;;;;;12.70;10.17;;;5.90;56.00;;;;;;5079020;28;20457;-58
2022/04/21 05:20:29;;;;;;;13.13;9.53;;;5.90;55.70;;;;;;5080063;28;20463;-57
2022/04/21 05:23:06;;;;;;;11.13;10.03;;;6.00;38.60;;;;;;5079749;28;20523;-56
2022/04/21 05:25:36;;;;;;;13.33;8.47;;;6.00;25.20;;;;;;5079730;28;20461;-58
2022/04/21 05:28:06;;;;;;;11.43;10.07;;;6.10;21.70;;;;;;5079721;28;20519;-58
2022/04/21 05:33:26;;;;;;;16.77;10.60;;;6.20;35.70;;;;;;5079062;28;20461;-58
2022/04/21 05:36:04;;;;;;;13.97;9.87;;;6.30;30.50;;;;;;5079677;28;20902;-58
2022/04/21 05:38:35;;;;;;;10.57;9.57;;;6.40;11.20;;;;;;5079406;28;20461;-58
2022/04/21 05:41:05;;;;;;;11.80;10.60;;;6.60;35.10;;;;;;5059425;28;20474;-58
2022/04/21 05:44:02;;;;;;;11.73;10.20;;;6.80;18.80;;;;;;5058950;28;20462;-58
2022/04/21 05:46:35;;;;;;;15.00;10.00;;;6.90;1.00;;;;;;5058298;28;20466;-58
2022/04/21 05:49:05;;;;;;;15.43;10.20;;;7.00;1.00;;;;;;5059328;28;20465;-57
2022/04/21 05:51:34;;;;;;;14.60;10.70;;;7.20;1.00;;;;;;5059299;28;20494;-58
2022/04/21 05:54:06;;;;;;;11.57;9.43;;;7.30;1.00;;;;;;5059282;28;20547;-56
2022/04/21 05:56:43;;;;;;;12.17;10.40;;;7.50;1.00;;;;;;5059838;28;20512;-58
2022/04/21 05:59:13;;;;;;;11.43;10.33;;;7.60;1.00;;;;;;5059130;28;20470;-58
2022/04/21 06:01:43;;;;;;;9.90;9.00;;;7.80;1.00;;;;;;5059409;28;20459;-58
2022/04/21 06:04:14;;;;;;;10.90;9.60;;;7.90;1.00;;;;;;5058880;28;20470;-59
2022/04/21 06:06:46;;;;;;;10.27;9.20;;;8.00;1.00;;;;;;5059393;28;20465;-58
2022/04/21 06:09:16;;;;;;;15.23;8.97;;;8.20;1.00;;;;;;5073985;28;20458;-59
2022/04/21 06:11:46;;;;;;;8.60;7.70;;;8.30;1.00;;;;;;5076958;28;20490;-58
2022/04/21 06:14:14;;;;;;;14.03;8.60;;;8.50;1.00;;;;;;5079195;28;20458;-59
2022/04/21 06:16:40;;;;;;;8.90;8.00;;;8.80;99.90;;;;;;5078837;28;20469;-60
2022/04/21 06:19:09;;;;;;;9.60;7.53;;;9.10;99.90;;;;;;5079034;28;20922;-58
2022/04/21 06:21:39;;;;;;;11.13;7.93;;;9.40;99.90;;;;;;5079121;28;20457;-59
2022/04/21 06:24:08;;;;;;;8.27;7.47;;;9.70;99.90;;;;;;5078751;28;20523;-59
2022/04/21 06:26:35;;;;;;;10.43;8.10;;;9.90;99.90;;;;;;5078873;28;20539;-59
2022/04/21 06:29:02;;;;;;;8.23;7.53;;;10.20;99.90;;;;;;5078741;28;20469;-59
2022/04/21 06:31:30;;;;;;;9.77;7.30;;;10.50;99.90;;;;;;5078378;28;20493;-59
2022/04/21 06:34:00;;;;;;;8.10;7.30;;;10.60;99.90;;;;;;5078203;28;20886;-58
2022/04/21 06:36:33;;;;;;;9.07;7.77;;;10.80;99.90;;;;;;5078618;28;20523;-58
2022/04/21 06:39:12;;;;;;;8.80;8.00;;;10.80;99.90;;;;;;5078328;28;20523;-58
2022/04/21 06:41:48;;;;;;;8.60;7.67;;;11.20;99.90;;;;;;5078105;28;20544;-57
2022/04/21 06:50:08;;;;;;;8.33;6.80;;;11.70;99.90;;;;;;5077579;28;20449;-60
2022/04/21 06:52:37;;;;;;;8.53;7.00;;;11.60;99.90;;;;;;5078505;28;20610;-59
2022/04/21 06:55:11;;;;;;;12.00;8.27;;;12.00;99.90;;;;;;5078131;28;20462;-58
2022/04/21 06:57:39;;;;;;;7.50;6.80;;;12.30;99.90;;;;;;5077596;28;20473;-60
2022/04/21 07:00:16;;;;;;;8.10;7.40;;;12.30;99.90;;;;;;5077718;28;20492;-60
2022/04/21 07:02:45;;;;;;;8.00;7.23;;;12.10;99.90;;;;;;5078163;28;20498;-60
2022/04/21 07:05:14;;;;;;;8.17;7.30;;;12.20;99.90;;;;;;5077899;28;20599;-59
2022/04/21 07:07:50;;;;;;;7.23;6.63;;;12.60;99.90;;;;;;5077596;28;20461;-59
2022/04/21 07:10:25;;;;;;;7.97;7.17;;;12.60;99.90;;;;;;5077922;28;20931;-60
2022/04/21 07:12:52;;;;;;;9.10;8.30;;;13.20;99.90;;;;;;5077436;28;20496;-60
2022/04/21 07:15:22;;;;;;;8.10;7.23;;;13.50;99.90;;;;;;5077688;28;20489;-60
2022/04/21 07:17:54;;;;;;;7.17;6.57;;;13.70;99.90;;;;;;5076775;28;20530;-60
2022/04/21 07:20:23;;;;;;;7.57;6.87;;;13.90;99.90;;;;;;5077193;28;20852;-60
2022/04/21 07:22:55;;;;;;;9.20;6.73;;;14.20;99.90;;;;;;5077566;28;20461;-61
2022/04/21 07:25:26;;;;;;;9.87;7.00;;;14.50;99.90;;;;;;5077507;28;20461;-60
2022/04/21 07:28:02;;;;;;;8.33;7.50;;;14.70;99.90;;;;;;5076884;28;20484;-60
2022/04/21 07:30:28;;;;;;;8.03;7.30;;;14.30;99.90;;;;;;5077504;28;20489;-60
2022/04/21 07:32:55;;;;;;;7.83;7.10;;;14.20;99.90;;;;;;5077177;28;20514;-60
2022/04/21 07:35:29;;;;;;;7.00;6.37;;;14.30;99.90;;;;;;5077349;28;20466;-60
2022/04/21 07:37:59;;;;;;;7.97;6.90;;;14.10;99.90;;;;;;5077001;28;20492;-60
2022/04/21 07:40:33;;;;;;;10.90;7.80;;;14.20;99.90;;;;;;5057853;28;20462;-60
2022/04/21 07:43:08;;;;;;;8.07;6.27;;;14.20;99.90;;;;;;5066312;28;20489;-61
2022/04/21 07:45:38;;;;;;;7.07;6.47;;;14.80;99.90;;;;;;5076645;28;20488;-60
2022/04/21 07:48:05;;;;;;;9.03;6.53;;;15.30;99.90;;;;;;5075952;28;20471;-60
2022/04/21 07:50:36;;;;;;;7.57;5.90;;;15.30;99.90;;;;;;5077524;28;20774;-60
2022/04/21 07:53:15;;;;;;;7.10;5.83;;;15.50;99.90;;;;;;5074650;28;20489;-60
2022/04/21 07:55:44;;;;;;;6.70;6.10;;;15.30;99.90;;;;;;5076149;28;20534;-60
2022/04/21 07:58:12;;;;;;;5.87;5.40;;;15.50;99.90;;;;;;5077262;28;20552;-60
2022/04/21 08:00:42;;;;;;;5.57;5.10;;;15.60;99.90;;;;;;5075854;28;20472;-60
2022/04/21 08:03:10;;;;;;;5.27;4.80;;;15.60;99.90;;;;;;5076512;28;20466;-61
2022/04/21 08:05:37;;;;;;;5.87;5.33;;;15.80;99.90;;;;;;5077192;28;20495;-60
2022/04/21 08:08:05;;;;;;;5.40;5.00;;;15.70;99.90;;;;;;5077122;28;20465;-60
2022/04/21 08:10:32;;;;;;;6.57;4.50;;;15.80;99.90;;;;;;5076194;28;20462;-60
2022/04/21 08:13:00;;;;;;;6.50;4.77;;;15.90;99.90;;;;;;5076593;28;20528;-60
2022/04/21 08:15:31;;;;;;;4.90;4.43;;;16.10;99.90;;;;;;5076563;28;20502;-60
2022/04/21 08:17:59;;;;;;;5.50;4.67;;;16.20;99.90;;;;;;5076908;28;20821;-61
2022/04/21 08:20:27;;;;;;;4.53;4.23;;;16.50;99.90;;;;;;5076930;28;20461;-60
2022/04/21 08:22:54;;;;;;;5.47;4.70;;;16.60;99.90;;;;;;5077126;28;20503;-61
2022/04/21 08:33:39;;;;;;;5.40;4.90;;;16.90;99.90;;;;;;5076182;28;20472;-61
2022/04/21 08:36:06;;;;;;;6.33;4.27;;;16.90;99.90;;;;;;5076247;28;20519;-61
2022/04/21 08:38:35;;;;;;;4.93;4.50;;;17.20;99.90;;;;;;5076879;28;20465;-60
2022/04/21 08:41:06;;;;;;;4.70;4.27;;;17.20;99.90;;;;;;5076126;28;20468;-61
2022/04/21 08:43:36;;;;;;;5.13;4.47;;;17.30;99.90;;;;;;5076926;28;20948;-60
2022/04/21 08:46:05;;;;;;;4.83;4.40;;;17.60;99.90;;;;;;5076448;28;20489;-61
2022/04/21 08:48:42;;;;;;;6.63;4.63;;;17.60;99.90;;;;;;5076719;28;20515;-59
2022/04/21 08:51:12;;;;;;;4.63;4.23;;;17.70;99.90;;;;;;5075388;28;20457;-60
2022/04/21 08:53:43;;;;;;;5.17;4.77;;;18.20;99.90;;;;;;5075875;28;20469;-60
2022/04/21 08:56:13;;;;;;;4.70;4.20;;;18.60;99.90;;;;;;5076272;28;20885;-61
2022/04/21 08:58:41;;;;;;;4.97;4.33;;;18.50;99.90;;;;;;5075358;28;20469;-60
2022/04/21 09:01:09;;;;;;;4.00;3.70;;;18.60;99.90;;;;;;5074701;28;20496;-60
2022/04/21 09:03:36;;;;;;;4.37;4.07;;;18.50;99.90;;;;;;5056357;28;20458;-60
2022/04/21 09:06:06;;;;;;;4.57;4.17;;;18.10;99.90;;;;;;5061557;28;20457;-60
2022/04/21 09:08:34;;;;;;;5.00;4.60;;;18.00;99.90;;;;;;5076817;28;20457;-60
2022/04/21 09:11:09;;;;;;;3.90;3.60;;;17.00;99.90;;;;;;5076586;28;20759;-60
2022/04/21 09:13:42;;;;;;;4.37;4.07;;;16.30;99.90;;;;;;5076288;28;20503;-60
2022/04/21 09:16:15;;;;;;;4.30;3.90;;;16.30;99.90;;;;;;5076254;28;20947;-61
2022/04/21 09:18:45;;;;;;;4.63;4.20;;;17.00;99.90;;;;;;5076362;28;20461;-60
2022/04/21 09:21:17;;;;;;;4.20;3.90;;;17.00;99.90;;;;;;5078446;28;20457;-60
2022/04/21 09:23:46;;;;;;;5.37;4.57;;;17.60;99.90;;;;;;5079303;28;20488;-60
2022/04/21 09:26:15;;;;;;;4.23;3.93;;;17.70;99.90;;;;;;5079152;28;20499;-60
2022/04/21 09:28:42;;;;;;;4.50;4.10;;;17.50;99.90;;;;;;5078092;28;20465;-58
2022/04/21 09:31:11;;;;;;;4.60;4.27;;;17.10;99.90;;;;;;5079110;28;20481;-60
2022/04/21 09:33:40;;;;;;;4.43;4.03;;;16.70;99.90;;;;;;5079011;28;20488;-60
2022/04/21 09:36:08;;;;;;;5.97;3.80;;;16.60;99.90;;;;;;5079597;28;20465;-59
2022/04/21 09:38:38;;;;;;;7.70;5.50;;;16.40;99.90;;;;;;5079632;28;20500;-59
2022/04/21 09:41:06;;;;;;;6.40;4.50;;;16.30;99.90;;;;;;5079742;28;20462;-60
2022/04/21 09:43:35;;;;;;;4.10;3.70;;;15.90;99.90;;;;;;5078706;28;20457;-58
2022/04/21 09:46:13;;;;;;;7.03;3.93;;;15.70;99.90;;;;;;5077689;28;20473;-59
2022/04/21 09:48:46;;;;;;;4.20;3.80;;;15.70;99.90;;;;;;5079672;28;20510;-59
2022/04/21 09:51:23;;;;;;;4.40;4.00;;;15.80;99.90;;;;;;5078384;28;20480;-59
2022/04/21 09:53:53;;;;;;;8.30;3.87;;;15.50;99.90;;;;;;5078241;28;20492;-59
2022/04/21 09:56:31;;;;;;;6.73;4.13;;;15.30;99.90;;;;;;5079414;28;20461;-59
2022/04/21 09:58:58;;;;;;;3.90;3.60;;;14.90;99.90;;;;;;5079182;28;20504;-59
2022/04/21 10:01:29;;;;;;;4.00;3.60;;;14.70;99.90;;;;;;5079408;28;20531;-60
2022/04/21 10:04:06;;;;;;;4.43;4.00;;;14.30;99.90;;;;;;5079159;28;20898;-59
2022/04/21 10:06:34;;;;;;;4.30;3.90;;;14.20;99.90;;;;;;5059554;28;20542;-59
2022/04/21 10:09:06;;;;;;;4.40;4.00;;;14.30;99.90;;;;;;5065264;28;20778;-59
2022/04/21 10:11:33;;;;;;;7.47;4.37;;;14.20;99.90;;;;;;5079023;28;20462;-60
2022/04/21 10:14:02;;;;;;;6.10;4.77;;;13.90;99.90;;;;;;5077902;28;20520;-59
2022/04/21 10:16:36;;;;;;;4.73;4.03;;;13.80;99.90;;;;;;5078114;28;20484;-59
2022/04/21 10:19:09;;;;;;;5.67;5.17;;;13.80;99.90;;;;;;5078996;28;20527;-59
2022/04/21 10:21:48;;;;;;;5.77;4.43;;;13.80;99.90;;;;;;5075559;28;20472;-59
2022/04/21 10:24:21;;;;;;;7.70;4.57;;;13.90;99.90;;;;;;5078048;28;20461;-60
2022/04/21 10:26:54;;;;;;;9.97;4.10;;;14.20;99.90;;;;;;5077527;28;20481;-60
2022/04/21 10:29:27;;;;;;;4.80;4.40;;;14.10;99.90;;;;;;5078125;28;20461;-60
2022/04/21 10:32:00;;;;;;;7.83;4.07;;;14.30;99.90;;;;;;5076770;28;20535;-60
2022/04/21 10:34:31;;;;;;;5.27;4.77;;;14.70;99.90;;;;;;5078718;28;20466;-59
2022/04/21 10:37:20;;;;;;;4.47;3.70;;;15.00;99.90;;;;;;5078118;28;20458;-59
2022/04/21 10:40:06;;;;;;;5.33;4.80;;;15.30;99.90;;;;;;5078404;28;20465;-60
2022/04/21 10:43:03;;;;;;;4.73;4.30;;;15.10;99.90;;;;;;5077285;28;20529;-59
2022/04/21 10:45:33;;;;;;;4.93;4.40;;;15.00;99.90;;;;;;5078330;28;20886;-60
2022/04/21 10:48:08;;;;;;;5.60;4.53;;;15.10;99.90;;;;;;5077174;28;20483;-59
2022/04/21 10:50:36;;;;;;;6.73;4.83;;;15.10;99.90;;;;;;5076915;28;20556;-59
2022/04/21 10:58:55;;;;;;;4.87;4.37;;;14.90;99.90;;;;;;5077504;28;20591;-59
2022/04/21 11:01:56;;;;;;;6.90;4.10;;;14.90;99.90;;;;;;5076323;28;20457;-59
2022/04/21 11:04:28;;;;;;;6.20;4.73;;;15.10;99.90;;;;;;5078127;28;20468;-59
2022/04/21 11:07:11;;;;;;;8.30;4.30;;;15.00;99.90;;;;;;5077839;28;20524;-59
2022/04/21 11:09:42;;;;;;;5.30;4.80;;;15.20;99.90;;;;;;5077091;28;20461;-60
2022/04/21 11:12:12;;;;;;;6.80;5.10;;;15.10;99.90;;;;;;5078112;28;20562;-59
2022/04/21 11:15:02;;;;;;;5.33;4.83;;;15.10;99.90;;;;;;5078046;28;20440;-59
2022/04/21 11:18:00;;;;;;;5.17;4.53;;;15.30;99.90;;;;;;5077711;28;20741;-59
2022/04/21 11:20:29;;;;;;;5.67;5.20;;;15.80;99.90;;;;;;5077440;28;20959;-58
2022/04/21 11:23:25;;;;;;;5.93;5.40;;;16.00;99.90;;;;;;5076120;28;20971;-59
2022/04/21 11:26:08;;;;;;;5.77;4.73;;;16.70;99.90;;;;;;5073520;28;20531;-60
2022/04/21 11:28:52;;;;;;;7.63;5.30;;;16.70;99.90;;;;;;5076431;28;20465;-60
2022/04/21 11:31:26;;;;;;;6.40;5.77;;;16.90;99.90;;;;;;5076290;28;20468;-60
2022/04/21 11:33:56;;;;;;;5.60;5.10;;;16.90;99.90;;;;;;5071562;28;20576;-60
2022/04/21 11:36:41;;;;;;;6.07;5.57;;;17.20;99.90;;;;;;5075901;28;20461;-59
2022/04/21 11:39:09;;;;;;;6.23;5.30;;;17.40;99.90;;;;;;5074829;28;20469;-59
2022/04/21 11:41:54;;;;;;;;;;;;;;;;;;;;;
2022/04/21 11:44:23;;;;;;;5.80;5.30;;;16.90;99.90;;;;;;5074087;28;20465;-59
2022/04/21 11:46:54;;;;;;;7.83;5.60;;;17.30;99.90;;;;;;5077392;28;20519;-59
2022/04/21 11:49:21;;;;;;;6.10;5.60;;;16.90;99.90;;;;;;5076325;28;20465;-59
2022/04/21 11:51:54;;;;;;;8.03;6.10;;;16.60;99.90;;;;;;5075640;28;20495;-58
2022/04/21 11:54:24;;;;;;;6.63;5.97;;;16.80;99.90;;;;;;5076321;28;20499;-59
2022/04/21 11:56:56;;;;;;;7.13;5.50;;;16.90;99.90;;;;;;5076124;28;20518;-60
2022/04/21 11:59:38;;;;;;;6.10;5.53;;;17.20;99.90;;;;;;5076315;28;20457;-60
2022/04/21 12:07:50;;;;;;;6.50;5.90;;;18.40;99.90;;;;;;5016994;28;20444;-62
2022/04/21 12:10:19;;;;;;;8.00;6.20;;;18.50;99.90;;;;;;5075990;28;20539;-62
2022/04/21 12:12:55;;;;;;;6.67;6.07;;;18.10;99.90;;;;;;5067840;28;20550;-62
2022/04/21 12:15:33;;;;;;;10.40;7.00;;;17.70;99.90;;;;;;5075864;28;20526;-62
2022/04/21 12:18:04;;;;;;;7.17;6.57;;;17.20;99.90;;;;;;5076322;28;20465;-62
2022/04/21 12:20:31;;;;;;;7.20;6.60;;;16.70;99.90;;;;;;5070497;28;20470;-62
2022/04/21 12:22:59;;;;;;;6.63;6.03;;;17.00;99.90;;;;;;5075127;28;20489;-62
2022/04/21 12:25:44;;;;;;;7.00;6.40;;;17.20;99.90;;;;;;5076861;28;20522;-62
2022/04/21 12:28:20;;;;;;;6.67;5.70;;;17.20;99.90;;;;;;5076084;28;20475;-63
2022/04/21 12:30:47;;;;;;;7.43;6.80;;;17.00;99.90;;;;;;5056649;28;20461;-62
2022/04/21 12:33:17;;;;;;;7.83;7.13;;;17.70;99.90;;;;;;5070312;28;20783;-62
2022/04/21 12:35:50;;;;;;;7.07;6.40;;;18.70;99.90;;;;;;5076748;28;20457;-62
2022/04/21 12:41:04;;;;;;;8.23;6.73;;;19.50;99.90;;;;;;5075084;28;20447;-62
2022/04/21 12:43:35;;;;;;;7.70;7.10;;;19.50;99.90;;;;;;5072646;28;20572;-62
2022/04/21 12:46:10;;;;;;;7.80;7.23;;;19.70;99.90;;;;;;5074342;28;20473;-62
2022/04/21 12:48:48;;;;;;;7.23;6.57;;;19.50;99.90;;;;;;5076629;28;20518;-62
2022/04/21 12:51:19;;;;;;;7.83;6.90;;;19.40;99.90;;;;;;5076093;28;20877;-62
2022/04/21 12:53:57;;;;;;;9.43;6.90;;;19.60;99.90;;;;;;5073104;28;20587;-62
2022/04/21 12:56:36;;;;;;;7.40;6.80;;;20.00;99.90;;;;;;5078905;28;20552;-62
2022/04/21 12:59:06;;;;;;;7.33;6.57;;;20.10;99.90;;;;;;5080736;28;20518;-62
2022/04/21 13:01:33;;;;;;;8.13;7.23;;;20.40;99.90;;;;;;5080583;28;20510;-62
2022/04/21 13:04:02;;;;;;;7.10;6.40;;;20.90;99.90;;;;;;5080441;28;20507;-62
2022/04/21 13:06:35;;;;;;;7.70;7.10;;;20.90;99.90;;;;;;5079858;28;20515;-60
2022/04/21 13:09:12;;;;;;;9.10;7.20;;;20.30;99.90;;;;;;5076534;28;20477;-62
2022/04/21 13:11:44;;;;;;;6.83;6.20;;;20.10;99.90;;;;;;5077062;28;20468;-62
2022/04/21 13:14:20;;;;;;;7.43;6.50;;;20.50;99.90;;;;;;5076516;28;20496;-62
2022/04/21 13:16:49;;;;;;;7.83;7.10;;;19.90;99.90;;;;;;5077859;28;20503;-62
2022/04/21 13:19:16;;;;;;;10.37;8.57;;;19.10;99.90;;;;;;5078917;28;20461;-62
2022/04/21 13:21:55;;;;;;;8.80;7.30;;;18.90;99.90;;;;;;5079008;28;20458;-62
2022/04/21 13:24:29;;;;;;;6.80;6.17;;;18.30;99.90;;;;;;5076778;28;20479;-62
2022/04/21 13:26:59;;;;;;;7.93;7.23;;;17.70;99.90;;;;;;5077553;28;20905;-62
2022/04/21 13:29:37;;;;;;;7.87;7.27;;;17.70;99.90;;;;;;5072704;28;20514;-62
2022/04/21 13:35:16;;;;;;;9.70;7.17;;;18.10;99.90;;;;;;5014316;28;20456;-62
2022/04/21 13:37:47;;;;;;;7.57;6.77;;;18.30;99.90;;;;;;5016003;28;20940;-62
2022/04/21 13:40:15;;;;;;;7.60;7.00;;;18.70;99.90;;;;;;5044760;28;20468;-62
2022/04/21 13:42:54;;;;;;;8.40;7.70;;;18.80;99.90;;;;;;5077540;28;20513;-62
2022/04/21 13:45:32;;;;;;;7.63;7.03;;;18.60;99.90;;;;;;5076502;28;20463;-63
2022/04/21 13:48:06;;;;;;;7.40;6.70;;;19.20;99.90;;;;;;5078063;28;20468;-62
2022/04/21 13:50:33;;;;;;;7.80;7.10;;;19.50;99.90;;;;;;5079043;28;20460;-62
2022/04/21 13:53:05;;;;;;;7.87;7.27;;;19.30;99.90;;;;;;5077849;28;21011;-62
2022/04/21 13:55:36;;;;;;;7.53;6.97;;;19.40;99.90;;;;;;5078720;28;20461;-62
2022/04/21 13:58:08;;;;;;;9.70;8.23;;;19.00;99.90;;;;;;5077452;28;20921;-62
2022/04/21 14:00:42;;;;;;;7.93;7.10;;;19.30;99.90;;;;;;5079170;28;20734;-62
2022/04/21 14:03:11;;;;;;;8.77;7.97;;;19.60;99.90;;;;;;5078553;28;20510;-62
2022/04/21 14:05:39;;;;;;;8.03;7.33;;;19.50;99.90;;;;;;5078958;28;20461;-60
2022/04/21 14:08:07;;;;;;;8.23;7.60;;;19.90;99.90;;;;;;5077471;28;20465;-60
2022/04/21 14:10:42;;;;;;;7.97;7.27;;;19.90;99.90;;;;;;5078533;28;20894;-59